Time;durP1;ratioP1;P1;durP2;ratioP2;P2;SDS_P1;SDS_P2;PMS_P1;PMS_P2;Temp;Humidity;BMP_temperature;BMP_pressure;BME280_temperature;BME280_humidity;BME280_pressure;Samples;Min_cycle;Max_cycle;Signal;HPM_P1;HPM_P2
2022/07/09 00:00:58;;;;;;;;;;;21.40;74.30;;;;;;5052849;28;835;-68
2022/07/09 00:03:24;;;;;;;;;;;21.40;74.30;;;;;;5053217;28;851;-68
2022/07/09 00:05:49;;;;;;;;;;;21.40;74.30;;;;;;5052697;28;852;-68
2022/07/09 00:08:15;;;;;;;;;;;21.40;74.30;;;;;;5052884;28;1291;-68
2022/07/09 00:10:40;;;;;;;;;;;21.40;74.30;;;;;;5053179;28;1905;-68
2022/07/09 00:13:06;;;;;;;;;;;21.40;74.30;;;;;;5052848;28;792;-68
2022/07/09 00:15:31;;;;;;;;;;;21.40;74.30;;;;;;5046440;28;1153;-67
2022/07/09 00:17:57;;;;;;;;;;;21.40;74.30;;;;;;5032769;28;1298;-68
2022/07/09 00:20:23;;;;;;;;;;;21.40;74.30;;;;;;5032803;28;1035;-68
2022/07/09 00:22:48;;;;;;;;;;;21.40;74.30;;;;;;5032906;28;1024;-68
2022/07/09 00:25:14;;;;;;;;;;;21.40;74.30;;;;;;5037483;28;1206;-68
2022/07/09 00:27:39;;;;;;;;;;;21.40;74.30;;;;;;5052646;28;796;-68
2022/07/09 00:30:05;;;;;;;;;;;21.40;74.30;;;;;;5052457;28;1910;-68
2022/07/09 00:32:30;;;;;;;;;;;21.40;74.30;;;;;;5052268;28;1071;-68
2022/07/09 00:34:56;;;;;;;;;;;21.40;74.30;;;;;;5052390;28;1041;-68
2022/07/09 00:37:21;;;;;;;;;;;21.40;74.30;;;;;;5052513;28;1246;-68
2022/07/09 00:39:47;;;;;;;;;;;21.40;74.30;;;;;;5052514;28;1282;-68
2022/07/09 00:42:12;;;;;;;;;;;21.40;74.30;;;;;;5052496;28;808;-67
2022/07/09 00:44:38;;;;;;;;;;;21.40;74.30;;;;;;5052111;28;818;-68
2022/07/09 00:47:04;;;;;;;;;;;21.30;74.20;;;;;;5050989;28;883;-68
2022/07/09 00:49:29;;;;;;;;;;;21.40;74.30;;;;;;5051172;28;1906;-68
2022/07/09 00:51:58;;;;;;;;;;;21.40;74.30;;;;;;5051351;28;811;-68
2022/07/09 00:54:23;;;;;;;;;;;21.40;74.30;;;;;;5052126;28;815;-68
2022/07/09 00:56:49;;;;;;;;;;;21.40;74.30;;;;;;5052416;28;832;-68
2022/07/09 00:59:15;;;;;;;;;;;21.40;74.30;;;;;;5051328;28;1238;-68
2022/07/09 01:01:40;;;;;;;;;;;21.40;74.30;;;;;;5055058;28;725;-68
2022/07/09 01:04:06;;;;;;;;;;;21.40;74.30;;;;;;5054876;28;933;-68
2022/07/09 01:06:31;;;;;;;;;;;21.40;74.30;;;;;;5055191;28;998;-68
2022/07/09 01:08:57;;;;;;;;;;;21.40;74.30;;;;;;5078593;22;1914;-71
2022/07/09 01:11:22;;;;;;;;;;;21.40;74.30;;;;;;5055373;28;1388;-71
2022/07/09 01:13:48;;;;;;;;;;;21.40;74.30;;;;;;5038085;28;890;-72
2022/07/09 01:16:14;;;;;;;;;;;21.30;74.30;;;;;;5026797;28;1356;-71
2022/07/09 01:18:40;;;;;;;;;;;21.30;74.30;;;;;;5021473;28;1358;-71
2022/07/09 01:21:05;;;;;;;;;;;21.40;74.30;;;;;;5018947;28;824;-71
2022/07/09 01:23:31;;;;;;;;;;;21.40;74.30;;;;;;5018843;28;840;-71
2022/07/09 01:25:56;;;;;;;;;;;21.40;74.30;;;;;;5025689;28;1136;-71
2022/07/09 01:28:22;;;;;;;;;;;21.40;74.30;;;;;;4998971;28;816;-71
2022/07/09 01:30:47;;;;;;;;;;;21.40;74.30;;;;;;4982413;28;1903;-71
2022/07/09 01:33:13;;;;;;;;;;;21.40;74.30;;;;;;5016618;28;855;-71
2022/07/09 01:35:38;;;;;;;;;;;21.40;74.30;;;;;;4998706;28;824;-70
2022/07/09 01:38:04;;;;;;;;;;;21.40;74.30;;;;;;5016584;28;832;-70
2022/07/09 01:40:29;;;;;;;;;;;21.40;74.30;;;;;;5016482;28;1272;-71
2022/07/09 01:42:55;;;;;;;;;;;21.30;74.20;;;;;;5015245;28;867;-71
2022/07/09 01:45:20;;;;;;;;;;;21.40;74.30;;;;;;5000284;28;1193;-70
2022/07/09 01:47:46;;;;;;;;;;;21.40;74.30;;;;;;5006252;28;1272;-70
2022/07/09 01:50:11;;;;;;;;;;;21.40;74.30;;;;;;5027359;28;1971;-70
2022/07/09 01:52:37;;;;;;;;;;;21.40;74.30;;;;;;5035977;28;923;-70
2022/07/09 01:55:02;;;;;;;;;;;21.40;74.30;;;;;;5018098;28;852;-72
2022/07/09 01:57:28;;;;;;;;;;;21.40;74.30;;;;;;5002006;28;786;-72
2022/07/09 01:59:53;;;;;;;;;;;21.40;74.30;;;;;;5036053;28;1289;-73
2022/07/09 02:02:18;;;;;;;;;;;21.30;74.30;;;;;;5035781;28;914;-72
2022/07/09 02:04:45;;;;;;;;;;;21.40;75.10;;;;;;5017974;28;914;-71
2022/07/09 02:07:11;;;;;;;;;;;21.30;74.20;;;;;;5035779;28;862;-71
2022/07/09 02:09:37;;;;;;;;;;;21.30;74.20;;;;;;5035638;28;1977;-72
2022/07/09 02:12:02;;;;;;;;;;;21.30;74.30;;;;;;5034397;28;910;-71
2022/07/09 02:14:28;;;;;;;;;;;21.30;74.20;;;;;;5035292;28;846;-72
2022/07/09 02:16:54;;;;;;;;;;;21.30;74.20;;;;;;5018529;28;1253;-71
2022/07/09 02:19:19;;;;;;;;;;;21.30;74.30;;;;;;5023870;28;1292;-72
2022/07/09 02:21:45;;;;;;;;;;;21.40;74.30;;;;;;5035380;28;1041;-71
2022/07/09 02:24:10;;;;;;;;;;;21.30;74.20;;;;;;5035261;28;835;-71
2022/07/09 02:26:35;;;;;;;;;;;21.30;74.20;;;;;;5035318;28;1123;-71
2022/07/09 02:29:01;;;;;;;;;;;21.40;74.30;;;;;;5035080;28;1910;-71
2022/07/09 02:31:27;;;;;;;;;;;21.40;74.30;;;;;;5035197;28;862;-70
2022/07/09 02:33:52;;;;;;;;;;;21.40;74.30;;;;;;5035121;28;836;-73
2022/07/09 02:36:18;;;;;;;;;;;21.40;74.30;;;;;;5035212;28;867;-72
2022/07/09 02:38:44;;;;;;;;;;;21.30;74.30;;;;;;5035259;28;1238;-72
2022/07/09 02:41:09;;;;;;;;;;;21.30;74.20;;;;;;5035232;28;1006;-72
2022/07/09 02:43:35;;;;;;;;;;;21.30;74.30;;;;;;5034876;28;811;-72
2022/07/09 02:46:00;;;;;;;;;;;21.40;74.30;;;;;;5017198;28;1073;-72
2022/07/09 02:48:26;;;;;;;;;;;21.30;74.20;;;;;;5035017;28;843;-72
2022/07/09 02:50:51;;;;;;;;;;;21.30;74.30;;;;;;5035297;28;1898;-72
2022/07/09 02:53:18;;;;;;;;;;;21.40;74.30;;;;;;5035020;28;812;-73
2022/07/09 02:55:43;;;;;;;;;;;21.30;74.30;;;;;;5034892;28;848;-70
2022/07/09 02:58:10;;;;;;;;;;;21.40;74.30;;;;;;5017138;28;1252;-70
2022/07/09 03:00:35;;;;;;;;;;;21.30;74.20;;;;;;5034705;28;1169;-70
2022/07/09 03:03:01;;;;;;;;;;;21.40;74.40;;;;;;5035060;28;708;-70
2022/07/09 03:05:26;;;;;;;;;;;21.30;74.30;;;;;;5034491;28;897;-70
2022/07/09 03:07:52;;;;;;;;;;;21.40;74.30;;;;;;5034623;28;875;-70
2022/07/09 03:10:17;;;;;;;;;;;21.30;74.30;;;;;;5034547;28;1906;-71
2022/07/09 03:12:43;;;;;;;;;;;21.40;74.30;;;;;;5016713;28;1432;-70
2022/07/09 03:15:08;;;;;;;;;;;21.40;74.30;;;;;;5031681;28;1115;-71
2022/07/09 03:17:34;;;;;;;;;;;21.30;74.30;;;;;;4997211;28;835;-71
2022/07/09 03:20:00;;;;;;;;;;;21.40;74.30;;;;;;5014561;28;1285;-71
2022/07/09 03:22:25;;;;;;;;;;;21.30;74.30;;;;;;5014196;28;886;-71
2022/07/09 03:24:51;;;;;;;;;;;21.30;74.30;;;;;;5015856;28;1117;-71
2022/07/09 03:27:16;;;;;;;;;;;21.30;74.30;;;;;;5034086;28;855;-71
2022/07/09 03:29:42;;;;;;;;;;;21.30;74.30;;;;;;5034192;28;1898;-71
2022/07/09 03:32:07;;;;;;;;;;;21.40;74.30;;;;;;5016558;28;975;-71
2022/07/09 03:34:33;;;;;;;;;;;21.30;74.30;;;;;;5034211;28;847;-71
2022/07/09 03:36:59;;;;;;;;;;;21.30;74.30;;;;;;5016337;28;954;-72
2022/07/09 03:39:24;;;;;;;;;;;21.40;74.30;;;;;;5034047;28;1304;-72
2022/07/09 03:41:50;;;;;;;;;;;21.40;74.30;;;;;;5033856;28;912;-71
2022/07/09 03:44:15;;;;;;;;;;;21.30;74.30;;;;;;5033708;28;771;-72
2022/07/09 03:46:41;;;;;;;;;;;21.30;74.30;;;;;;5033942;28;836;-70
2022/07/09 03:49:06;;;;;;;;;;;21.30;74.30;;;;;;5033757;28;1961;-69
2022/07/09 03:51:31;;;;;;;;;;;21.30;74.30;;;;;;5016072;28;899;-70
2022/07/09 03:53:57;;;;;;;;;;;21.30;74.30;;;;;;5033569;28;919;-70
2022/07/09 03:56:22;;;;;;;;;;;21.30;74.30;;;;;;5033534;28;907;-69
2022/07/09 03:58:48;;;;;;;;;;;21.30;75.00;;;;;;5033638;28;1284;-70
2022/07/09 04:01:14;;;;;;;;;;;21.30;74.30;;;;;;5033742;28;823;-70
2022/07/09 04:03:39;;;;;;;;;;;21.40;74.40;;;;;;5031304;28;2192;-68
2022/07/09 04:06:05;;;;;;;;;;;21.40;74.40;;;;;;5030726;28;1418;-69
2022/07/09 04:08:30;;;;;;;;;;;21.30;74.30;;;;;;5028486;28;1629;-69
2022/07/09 04:10:56;;;;;;;;;;;21.30;74.30;;;;;;5009983;28;1906;-70
2022/07/09 04:13:21;;;;;;;;;;;21.40;75.10;;;;;;5033498;28;803;-70
2022/07/09 04:15:47;;;;;;;;;;;21.30;74.30;;;;;;5025380;28;1484;-70
2022/07/09 04:18:14;;;;;;;;;;;21.30;74.30;;;;;;5013770;28;822;-71
2022/07/09 04:20:39;;;;;;;;;;;21.30;74.30;;;;;;5011603;28;1453;-71
2022/07/09 04:23:05;;;;;;;;;;;21.30;74.30;;;;;;5013827;28;946;-71
2022/07/09 04:25:30;;;;;;;;;;;21.40;74.40;;;;;;5020098;28;1517;-70
2022/07/09 04:27:56;;;;;;;;;;;21.30;74.30;;;;;;5033507;28;780;-71
2022/07/09 04:30:27;;;;;;;;;;;21.30;74.30;;;;;;5033370;28;1963;-71
2022/07/09 04:32:53;;;;;;;;;;;21.40;74.30;;;;;;5015682;28;899;-71
2022/07/09 04:35:18;;;;;;;;;;;21.30;74.30;;;;;;5032494;28;800;-71
2022/07/09 04:37:44;;;;;;;;;;;21.30;74.30;;;;;;5015615;28;800;-72
2022/07/09 04:40:09;;;;;;;;;;;21.30;74.30;;;;;;5033528;28;1196;-71
2022/07/09 04:42:35;;;;;;;;;;;21.30;74.30;;;;;;5033231;28;822;-72
2022/07/09 04:45:00;;;;;;;;;;;21.40;74.40;;;;;;5032984;28;915;-73
2022/07/09 04:47:26;;;;;;;;;;;21.30;74.30;;;;;;5033384;28;935;-71
2022/07/09 04:49:51;;;;;;;;;;;21.30;74.30;;;;;;5033258;28;1910;-70
2022/07/09 04:52:19;;;;;;;;;;;21.30;74.30;;;;;;5033182;28;875;-71
2022/07/09 04:54:45;;;;;;;;;;;21.30;74.30;;;;;;5032850;28;849;-71
2022/07/09 04:57:10;;;;;;;;;;;21.40;74.40;;;;;;5032985;28;803;-71
2022/07/09 04:59:36;;;;;;;;;;;21.30;74.30;;;;;;5033061;28;1277;-71
2022/07/09 05:02:01;;;;;;;;;;;21.30;74.30;;;;;;5033010;28;796;-71
2022/07/09 05:04:27;;;;;;;;;;;21.40;74.40;;;;;;5032730;28;887;-70
2022/07/09 05:06:52;;;;;;;;;;;21.30;74.30;;;;;;5032920;28;871;-70
2022/07/09 05:09:18;;;;;;;;;;;21.30;74.30;;;;;;5032615;28;1967;-70
2022/07/09 05:11:43;;;;;;;;;;;21.30;74.30;;;;;;5032829;28;1049;-70
2022/07/09 05:14:08;;;;;;;;;;;21.30;74.30;;;;;;5032881;28;836;-70
2022/07/09 05:16:34;;;;;;;;;;;21.40;74.40;;;;;;5018494;28;1494;-70
2022/07/09 05:19:00;;;;;;;;;;;21.30;74.30;;;;;;4995365;28;1428;-70
2022/07/09 05:21:25;;;;;;;;;;;21.30;74.30;;;;;;5013050;28;888;-70
2022/07/09 05:23:51;;;;;;;;;;;21.30;74.30;;;;;;5012766;28;798;-70
2022/07/09 05:26:16;;;;;;;;;;;21.30;74.30;;;;;;5026289;28;1506;-70
2022/07/09 05:28:42;;;;;;;;;;;21.40;74.40;;;;;;5032657;28;1282;-73
2022/07/09 05:31:07;;;;;;;;;;;21.30;74.30;;;;;;5032147;28;2272;-70
2022/07/09 05:33:33;;;;;;;;;;;21.30;74.30;;;;;;5027282;28;1444;-70
2022/07/09 05:35:58;;;;;;;;;;;21.30;74.30;;;;;;5024273;28;1334;-71
2022/07/09 05:38:23;;;;;;;;;;;21.30;74.30;;;;;;5032314;28;804;-70
2022/07/09 05:40:50;;;;;;;;;;;21.30;74.30;;;;;;5032296;28;1217;-69
2022/07/09 05:43:16;;;;;;;;;;;21.30;74.30;;;;;;5032436;28;843;-70
2022/07/09 05:45:41;;;;;;;;;;;21.30;74.30;;;;;;5015819;28;776;-70
2022/07/09 05:48:07;;;;;;;;;;;21.30;74.30;;;;;;5018407;28;938;-71
2022/07/09 05:50:32;;;;;;;;;;;21.30;74.30;;;;;;5036005;28;1886;-70
2022/07/09 05:52:58;;;;;;;;;;;21.30;74.30;;;;;;5018324;28;1132;-69
2022/07/09 05:55:24;;;;;;;;;;;21.30;74.40;;;;;;5035765;28;831;-71
2022/07/09 05:57:49;;;;;;;;;;;21.30;74.30;;;;;;5032813;28;2176;-71
2022/07/09 06:00:15;;;;;;;;;;;21.30;74.30;;;;;;5027525;28;1354;-72
2022/07/09 06:02:40;;;;;;;;;;;21.30;74.30;;;;;;5035587;28;1103;-72
2022/07/09 06:05:06;;;;;;;;;;;21.30;74.30;;;;;;5028327;28;1135;-71
2022/07/09 06:07:31;;;;;;;;;;;21.30;74.30;;;;;;5034720;28;1206;-71
2022/07/09 06:09:57;;;;;;;;;;;21.40;74.40;;;;;;5035400;28;1906;-71
2022/07/09 06:12:22;;;;;;;;;;;21.30;74.30;;;;;;5035660;28;910;-72
2022/07/09 06:14:48;;;;;;;;;;;21.30;74.30;;;;;;5035516;28;804;-73
2022/07/09 06:17:13;;;;;;;;;;;21.30;74.30;;;;;;5015891;28;1285;-70
2022/07/09 06:19:39;;;;;;;;;;;21.30;74.30;;;;;;5015925;28;1283;-70
2022/07/09 06:22:04;;;;;;;;;;;21.30;74.30;;;;;;5015681;28;863;-72
2022/07/09 06:24:30;;;;;;;;;;;21.30;74.30;;;;;;5015435;28;982;-72
2022/07/09 06:26:55;;;;;;;;;;;21.30;74.30;;;;;;5034158;28;1131;-70
2022/07/09 06:29:21;;;;;;;;;;;21.30;74.30;;;;;;5035489;28;1894;-71
2022/07/09 06:31:46;;;;;;;;;;;21.30;74.30;;;;;;5034725;28;2216;-72
2022/07/09 06:34:12;;;;;;;;;;;21.30;74.30;;;;;;5009413;28;1541;-71
2022/07/09 06:36:38;;;;;;;;;;;21.30;74.30;;;;;;4997930;28;840;-73
2022/07/09 06:41:47;;;;;;;;;;;21.30;74.30;;;;;;5015805;28;610;-71
2022/07/09 06:44:13;;;;;;;;;;;21.30;74.30;;;;;;5014871;28;1057;-71
2022/07/09 06:46:38;;;;;;;;;;;21.30;74.30;;;;;;5015434;28;1028;-72
2022/07/09 06:49:04;;;;;;;;;;;21.30;74.30;;;;;;4997675;28;1953;-71
2022/07/09 06:51:29;;;;;;;;;;;21.30;74.30;;;;;;5015104;28;927;-72
2022/07/09 06:53:55;;;;;;;;;;;21.30;74.30;;;;;;5014916;28;1025;-71
2022/07/09 06:56:21;;;;;;;;;;;21.30;74.30;;;;;;5015308;28;874;-71
2022/07/09 06:58:46;;;;;;;;;;;21.30;74.30;;;;;;4996879;28;1196;-71
2022/07/09 07:01:11;;;;;;;;;;;21.30;74.30;;;;;;5015077;28;927;-73
2022/07/09 07:03:37;;;;;;;;;;;21.30;74.30;;;;;;5014918;28;808;-71
2022/07/09 07:06:02;;;;;;;;;;;21.30;74.30;;;;;;5014706;28;848;-71
2022/07/09 07:08:28;;;;;;;;;;;21.30;74.30;;;;;;5014884;28;879;-72
2022/07/09 07:10:53;;;;;;;;;;;21.30;74.30;;;;;;5068750;22;3731;-66
2022/07/09 07:13:19;;;;;;;;;;;21.30;74.30;;;;;;5074436;28;870;-67
2022/07/09 07:15:44;;;;;;;;;;;21.30;74.30;;;;;;5074269;28;1091;-67
2022/07/09 07:18:10;;;;;;;;;;;21.30;74.30;;;;;;5074423;28;834;-66
2022/07/09 07:20:35;;;;;;;;;;;21.30;74.30;;;;;;5044095;28;1291;-67
2022/07/09 07:23:01;;;;;;;;;;;21.30;74.30;;;;;;5034381;28;946;-67
2022/07/09 07:25:26;;;;;;;;;;;21.30;74.30;;;;;;5040596;28;1140;-67
2022/07/09 07:27:52;;;;;;;;;;;21.30;74.30;;;;;;5054590;28;1052;-66
2022/07/09 07:30:17;;;;;;;;;;;21.30;74.30;;;;;;5054207;28;1979;-67
2022/07/09 07:32:43;;;;;;;;;;;21.30;74.30;;;;;;5036414;28;1072;-67
2022/07/09 07:35:08;;;;;;;;;;;21.30;74.30;;;;;;5053973;28;850;-67
2022/07/09 07:37:34;;;;;;;;;;;21.30;74.30;;;;;;5054063;28;894;-67
2022/07/09 07:39:59;;;;;;;;;;;21.30;74.30;;;;;;5054067;28;1265;-67
2022/07/09 07:42:25;;;;;;;;;;;21.30;74.30;;;;;;5036063;28;923;-67
2022/07/09 07:44:50;;;;;;;;;;;21.30;74.30;;;;;;5053777;28;898;-67
2022/07/09 07:47:16;;;;;;;;;;;21.30;74.30;;;;;;5054026;28;791;-67
2022/07/09 07:49:41;;;;;;;;;;;21.30;74.30;;;;;;5053653;28;1898;-67
2022/07/09 07:52:07;;;;;;;;;;;21.30;74.30;;;;;;5036072;28;1006;-67
2022/07/09 07:54:33;;;;;;;;;;;21.30;74.30;;;;;;5053713;28;807;-67
2022/07/09 07:56:58;;;;;;;;;;;21.30;74.30;;;;;;5053875;28;842;-67
2022/07/09 07:59:24;;;;;;;;;;;21.30;74.30;;;;;;5053843;28;1194;-66
2022/07/09 08:01:49;;;;;;;;;;;21.30;74.30;;;;;;5053791;28;890;-67
2022/07/09 08:04:15;;;;;;;;;;;21.30;74.30;;;;;;5035585;28;922;-67
2022/07/09 08:06:40;;;;;;;;;;;21.30;74.30;;;;;;5053572;28;795;-67
2022/07/09 08:09:05;;;;;;;;;;;21.30;74.30;;;;;;5053476;28;1907;-66
2022/07/09 08:11:31;;;;;;;;;;;21.30;74.30;;;;;;5053437;28;1184;-67
2022/07/09 08:13:56;;;;;;;;;;;21.30;74.30;;;;;;5053123;28;986;-67
2022/07/09 08:16:22;;;;;;;;;;;21.30;74.30;;;;;;5022846;28;1123;-67
2022/07/09 08:18:47;;;;;;;;;;;21.30;74.30;;;;;;5033570;28;1111;-67
2022/07/09 08:21:13;;;;;;;;;;;21.30;74.40;;;;;;5033367;28;1188;-67
2022/07/09 08:23:51;;;;;;;;;;;21.30;74.30;;;;;;5015704;28;816;-66
2022/07/09 08:26:26;;;;;;;;;;;21.30;74.30;;;;;;5030656;28;1176;-67
2022/07/09 08:28:51;;;;;;;;;;;21.30;74.30;;;;;;5035633;28;941;-67
2022/07/09 08:31:17;;;;;;;;;;;21.30;74.30;;;;;;5053507;28;1976;-67
2022/07/09 08:33:43;;;;;;;;;;;21.30;74.30;;;;;;5035114;28;871;-67
2022/07/09 08:36:08;;;;;;;;;;;21.30;74.30;;;;;;5035516;28;725;-67
2022/07/09 08:38:33;;;;;;;;;;;21.30;74.30;;;;;;5052975;28;1096;-67
2022/07/09 08:40:59;;;;;;;;;;;21.30;74.30;;;;;;5053091;28;1286;-67
2022/07/09 08:43:26;;;;;;;;;;;21.30;74.30;;;;;;5053026;28;1228;-67
2022/07/09 08:45:53;;;;;;;;;;;21.30;74.30;;;;;;5053112;28;869;-67
2022/07/09 08:48:18;;;;;;;;;;;21.30;74.30;;;;;;5035315;28;1334;-67
2022/07/09 08:50:44;;;;;;;;;;;21.30;74.30;;;;;;5053194;28;1907;-67
2022/07/09 08:53:10;;;;;;;;;;;21.30;74.30;;;;;;5053146;28;874;-67
2022/07/09 08:55:36;;;;;;;;;;;21.30;74.30;;;;;;5034938;28;1001;-66
2022/07/09 08:58:02;;;;;;;;;;;21.30;74.30;;;;;;5035373;28;839;-67
2022/07/09 09:00:27;;;;;;;;;;;21.30;74.30;;;;;;5035030;28;1203;-67
2022/07/09 09:02:53;;;;;;;;;;;21.30;74.30;;;;;;5052901;28;1013;-67
2022/07/09 09:05:18;;;;;;;;;;;21.30;74.30;;;;;;5052650;28;1064;-67
2022/07/09 09:07:44;;;;;;;;;;;21.30;74.30;;;;;;5034976;28;792;-67
2022/07/09 09:10:19;;;;;;;;;;;21.30;74.30;;;;;;5018247;28;1898;-67
2022/07/09 09:12:45;;;;;;;;;;;21.30;74.30;;;;;;5052947;28;898;-67
2022/07/09 09:15:11;;;;;;;;;;;21.30;74.30;;;;;;5049422;28;1115;-67
2022/07/09 09:17:42;;;;;;;;;;;21.30;74.40;;;;;;5032860;28;832;-67
2022/07/09 09:20:11;;;;;;;;;;;21.30;74.30;;;;;;5032911;28;1297;-67
2022/07/09 09:22:43;;;;;;;;;;;21.30;74.40;;;;;;5019020;28;1053;-67
2022/07/09 09:25:08;;;;;;;;;;;21.30;74.30;;;;;;5018941;28;954;-67
2022/07/09 09:27:34;;;;;;;;;;;21.30;74.30;;;;;;5018780;28;1267;-67
2022/07/09 09:29:59;;;;;;;;;;;21.30;74.30;;;;;;5036563;28;1961;-66
2022/07/09 09:32:25;;;;;;;;;;;21.30;74.30;;;;;;5036610;28;858;-66
2022/07/09 09:34:50;;;;;;;;;;;21.30;74.30;;;;;;5036532;28;804;-67
2022/07/09 09:37:24;;;;;;;;;;;21.30;74.30;;;;;;5036617;28;887;-68
2022/07/09 09:39:50;;;;;;;;;;;21.30;74.30;;;;;;5036466;28;1338;-67
2022/07/09 09:42:15;;;;;;;;;;;21.30;74.30;;;;;;5036155;28;815;-67
2022/07/09 09:44:41;;;;;;;;;;;21.30;74.30;;;;;;5018414;28;804;-67
2022/07/09 09:47:10;;;;;;;;;;;21.30;74.40;;;;;;5018664;28;887;-67
2022/07/09 09:49:39;;;;;;;;;;;21.30;74.30;;;;;;5036116;28;1957;-67
2022/07/09 09:52:08;;;;;;;;;;;21.30;74.30;;;;;;5018507;28;1231;-67
2022/07/09 09:54:34;;;;;;;;;;;21.30;74.30;;;;;;5035820;28;879;-67
2022/07/09 09:57:00;;;;;;;;;;;21.30;74.30;;;;;;5018450;28;866;-67
2022/07/09 09:59:25;;;;;;;;;;;21.30;74.30;;;;;;5018283;28;1288;-67
2022/07/09 10:01:50;;;;;;;;;;;21.30;74.30;;;;;;5036010;28;1002;-67
2022/07/09 10:04:16;;;;;;;;;;;21.30;74.30;;;;;;5035346;28;796;-67
2022/07/09 10:06:42;;;;;;;;;;;21.30;74.30;;;;;;5036295;28;781;-67
2022/07/09 10:09:07;;;;;;;;;;;21.30;74.30;;;;;;5035706;28;1145;-67
2022/07/09 10:11:39;;;;;;;;;;;21.30;74.30;;;;;;5017836;28;1894;-67
2022/07/09 10:14:05;;;;;;;;;;;21.30;74.30;;;;;;5017593;28;1285;-67
2022/07/09 10:16:34;;;;;;;;;;;21.30;74.30;;;;;;5031791;28;1180;-67
2022/07/09 10:18:59;;;;;;;;;;;21.30;75.10;;;;;;5017687;28;1144;-67
2022/07/09 10:21:38;;;;;;;;;;;21.30;74.40;;;;;;5035552;28;1161;-67
2022/07/09 10:24:03;;;;;;;;;;;21.30;74.30;;;;;;5034269;28;823;-67
2022/07/09 10:26:38;;;;;;;;;;;21.30;74.30;;;;;;5049376;28;1199;-67
2022/07/09 10:29:16;;;;;;;;;;;21.30;74.30;;;;;;5055433;28;831;-66
2022/07/09 10:31:43;;;;;;;;;;;21.30;74.40;;;;;;5036924;28;1046;-67
2022/07/09 10:34:08;;;;;;;;;;;21.30;74.40;;;;;;5020160;28;879;-66
2022/07/09 10:36:34;;;;;;;;;;;21.30;74.40;;;;;;5037410;28;867;-67
2022/07/09 10:38:59;;;;;;;;;;;21.30;75.10;;;;;;5037344;28;1050;-67
2022/07/09 10:41:25;;;;;;;;;;;21.30;74.40;;;;;;5055282;28;1264;-67
2022/07/09 10:43:50;;;;;;;;;;;21.30;74.40;;;;;;5054776;28;864;-66
2022/07/09 10:46:16;;;;;;;;;;;21.30;74.40;;;;;;5055189;28;1025;-67
2022/07/09 10:48:45;;;;;;;;;;;21.30;74.40;;;;;;5037142;28;837;-67
2022/07/09 10:51:17;;;;;;;;;;;21.30;74.40;;;;;;5054834;28;1945;-67
2022/07/09 10:53:42;;;;;;;;;;;21.30;74.40;;;;;;5037044;28;1002;-67
2022/07/09 10:56:08;;;;;;;;;;;21.30;74.40;;;;;;5054828;28;849;-67
2022/07/09 10:58:33;;;;;;;;;;;21.30;74.40;;;;;;5055176;28;1012;-67
2022/07/09 11:00:59;;;;;;;;;;;21.30;74.40;;;;;;5054843;28;1266;-67
2022/07/09 11:03:26;;;;;;;;;;;21.30;74.40;;;;;;5054449;28;804;-66
2022/07/09 11:05:51;;;;;;;;;;;21.30;74.40;;;;;;5054720;28;894;-66
2022/07/09 11:08:17;;;;;;;;;;;21.30;74.40;;;;;;5054569;28;851;-67
2022/07/09 11:10:42;;;;;;;;;;;21.30;74.40;;;;;;5054447;28;1902;-67
2022/07/09 11:13:09;;;;;;;;;;;21.30;74.40;;;;;;5036725;28;874;-66
2022/07/09 11:15:34;;;;;;;;;;;21.30;74.40;;;;;;5030400;28;1151;-67
2022/07/09 11:18:03;;;;;;;;;;;21.30;74.40;;;;;;5034415;28;1057;-66
2022/07/09 11:20:29;;;;;;;;;;;21.30;74.40;;;;;;5034721;28;1293;-67
2022/07/09 11:22:56;;;;;;;;;;;21.30;74.40;;;;;;5017007;28;813;-67
2022/07/09 11:25:22;;;;;;;;;;;21.30;74.40;;;;;;5040033;28;1155;-67
2022/07/09 11:27:47;;;;;;;;;;;21.30;74.40;;;;;;5054305;28;859;-66
2022/07/09 11:30:14;;;;;;;;;;;21.30;74.40;;;;;;5036393;28;1972;-66
2022/07/09 11:32:40;;;;;;;;;;;21.30;74.40;;;;;;5036233;28;835;-67
2022/07/09 11:35:06;;;;;;;;;;;21.30;74.40;;;;;;5053936;28;796;-66
2022/07/09 11:37:31;;;;;;;;;;;21.30;74.40;;;;;;5053959;28;1014;-67
2022/07/09 11:39:57;;;;;;;;;;;21.30;74.40;;;;;;5054022;28;1320;-67
2022/07/09 11:42:23;;;;;;;;;;;21.30;74.40;;;;;;5053988;28;827;-67
2022/07/09 11:44:59;;;;;;;;;;;21.30;74.30;;;;;;5053511;28;835;-66
2022/07/09 11:47:34;;;;;;;;;;;21.30;74.40;;;;;;5053722;28;851;-67
2022/07/09 11:50:06;;;;;;;;;;;21.30;74.40;;;;;;5054106;28;1902;-67
2022/07/09 11:52:32;;;;;;;;;;;21.30;74.40;;;;;;5053838;28;914;-67
2022/07/09 11:54:58;;;;;;;;;;;21.30;74.40;;;;;;5053528;28;922;-66
2022/07/09 11:57:23;;;;;;;;;;;21.30;74.40;;;;;;5035908;28;822;-67
2022/07/09 11:59:49;;;;;;;;;;;21.30;74.40;;;;;;5053446;28;1284;-68
2022/07/09 12:02:24;;;;;;;;;;;21.30;74.40;;;;;;5053592;28;764;-67
2022/07/09 12:04:49;;;;;;;;;;;21.30;74.40;;;;;;5053548;28;854;-68
2022/07/09 12:07:15;;;;;;;;;;;21.30;74.40;;;;;;5053543;28;850;-67
2022/07/09 12:09:41;;;;;;;;;;;21.30;74.40;;;;;;5053255;28;1957;-67
2022/07/09 12:12:06;;;;;;;;;;;21.30;74.40;;;;;;5053493;28;1024;-67
2022/07/09 12:14:32;;;;;;;;;;;21.30;74.40;;;;;;5053162;28;891;-67
2022/07/09 12:16:57;;;;;;;;;;;21.30;74.40;;;;;;5035688;28;1182;-67
2022/07/09 12:19:23;;;;;;;;;;;21.30;74.40;;;;;;5015519;28;1304;-67
2022/07/09 12:21:48;;;;;;;;;;;21.30;74.40;;;;;;5033575;28;816;-67
2022/07/09 12:24:14;;;;;;;;;;;21.30;74.40;;;;;;5033060;28;792;-67
2022/07/09 12:26:39;;;;;;;;;;;21.30;74.40;;;;;;5049690;28;1172;-67
2022/07/09 12:29:05;;;;;;;;;;;21.30;75.10;;;;;;5053071;28;808;-67
2022/07/09 12:31:30;;;;;;;;;;;21.30;74.40;;;;;;5052999;28;1959;-67
2022/07/09 12:33:56;;;;;;;;;;;21.30;74.40;;;;;;5053166;28;856;-67
2022/07/09 12:36:21;;;;;;;;;;;21.30;74.40;;;;;;5053101;28;827;-67
2022/07/09 12:38:46;;;;;;;;;;;21.30;74.30;;;;;;5053137;28;859;-66
2022/07/09 12:41:12;;;;;;;;;;;21.30;74.40;;;;;;5053014;28;1222;-67
2022/07/09 12:43:37;;;;;;;;;;;21.30;74.40;;;;;;5052799;28;895;-67
2022/07/09 12:46:03;;;;;;;;;;;21.30;74.40;;;;;;5052877;28;891;-67
2022/07/09 12:48:28;;;;;;;;;;;21.30;74.40;;;;;;5052982;28;906;-67
2022/07/09 12:50:54;;;;;;;;;;;21.30;74.40;;;;;;5052888;28;1894;-67
2022/07/09 12:53:19;;;;;;;;;;;21.30;74.40;;;;;;5052853;28;891;-67
2022/07/09 12:55:46;;;;;;;;;;;21.30;74.40;;;;;;5052070;28;1021;-67
2022/07/09 12:58:12;;;;;;;;;;;21.30;74.40;;;;;;5035439;28;867;-67
2022/07/09 13:00:37;;;;;;;;;;;21.30;74.40;;;;;;5052756;28;1212;-67
2022/07/09 13:03:03;;;;;;;;;;;21.30;74.40;;;;;;5052788;28;815;-67
2022/07/09 13:05:28;;;;;;;;;;;21.30;74.40;;;;;;5052555;28;848;-67
2022/07/09 13:07:53;;;;;;;;;;;21.30;74.40;;;;;;5052838;28;1064;-67
2022/07/09 13:10:19;;;;;;;;;;;21.30;74.40;;;;;;5066978;22;2055;-73
2022/07/09 13:12:44;;;;;;;;;;;21.30;74.40;;;;;;5049219;28;1721;-72
2022/07/09 13:15:10;;;;;;;;;;;21.30;74.40;;;;;;5052472;28;1123;-72
2022/07/09 13:17:35;;;;;;;;;;;21.30;74.40;;;;;;5052735;28;838;-72
2022/07/09 13:20:02;;;;;;;;;;;21.30;74.40;;;;;;5038684;28;1135;-72
2022/07/09 13:22:27;;;;;;;;;;;21.30;74.40;;;;;;4996156;28;1269;-72
2022/07/09 13:24:53;;;;;;;;;;;21.30;74.40;;;;;;4997039;28;1136;-72
2022/07/09 13:27:18;;;;;;;;;;;21.30;74.40;;;;;;5032714;28;776;-72
2022/07/09 13:29:44;;;;;;;;;;;21.30;74.40;;;;;;5014869;28;1907;-72
2022/07/09 13:32:09;;;;;;;;;;;21.30;74.40;;;;;;5015064;28;1200;-72
2022/07/09 13:34:35;;;;;;;;;;;21.30;74.40;;;;;;5032344;28;1025;-71
2022/07/09 13:37:00;;;;;;;;;;;21.30;74.40;;;;;;5032694;28;998;-72
2022/07/09 13:39:26;;;;;;;;;;;21.30;74.40;;;;;;5014953;28;891;-72
2022/07/09 13:41:51;;;;;;;;;;;21.30;74.40;;;;;;5032452;28;1203;-72
2022/07/09 13:44:17;;;;;;;;;;;21.30;74.40;;;;;;5032415;28;823;-72
2022/07/09 13:46:42;;;;;;;;;;;21.30;74.40;;;;;;5014813;28;1443;-72
2022/07/09 13:49:08;;;;;;;;;;;21.30;74.40;;;;;;5014842;28;935;-72
2022/07/09 13:51:33;;;;;;;;;;;21.30;74.40;;;;;;5032406;28;1898;-72
2022/07/09 13:53:59;;;;;;;;;;;21.30;74.40;;;;;;5014726;28;804;-72
2022/07/09 13:56:24;;;;;;;;;;;21.30;74.40;;;;;;5032177;28;851;-72
2022/07/09 13:58:50;;;;;;;;;;;21.30;74.40;;;;;;5032350;28;882;-72
2022/07/09 14:01:15;;;;;;;;;;;21.30;74.40;;;;;;5032530;28;1196;-72
2022/07/09 14:03:41;;;;;;;;;;;21.30;74.40;;;;;;5014451;28;1189;-72
2022/07/09 14:06:06;;;;;;;;;;;21.30;74.40;;;;;;5032404;28;974;-72
2022/07/09 14:08:32;;;;;;;;;;;21.30;74.40;;;;;;5034815;28;1769;-73
2022/07/09 14:10:57;;;;;;;;;;;21.30;74.40;;;;;;5035486;28;1956;-73
2022/07/09 14:13:26;;;;;;;;;;;21.30;74.40;;;;;;5018071;28;874;-73
2022/07/09 14:15:55;;;;;;;;;;;21.30;74.50;;;;;;5026971;28;1166;-74
2022/07/09 14:18:21;;;;;;;;;;;21.30;74.40;;;;;;5015987;28;1132;-73
2022/07/09 14:20:47;;;;;;;;;;;21.30;74.50;;;;;;5015946;28;1214;-73
2022/07/09 14:23:12;;;;;;;;;;;21.30;74.40;;;;;;4998327;28;788;-74
2022/07/09 14:25:37;;;;;;;;;;;21.30;74.50;;;;;;5023203;28;1133;-73
2022/07/09 14:28:03;;;;;;;;;;;21.30;74.40;;;;;;5017807;28;812;-73
2022/07/09 14:30:28;;;;;;;;;;;21.30;74.40;;;;;;5017678;28;1971;-73